sensor_id;sensor_type;location;lat;lon;timestamp;temperature;humidity
12568;DHT22;6349;50.904;6.136;2024-03-23T00:52:36;8.80;99.90
12568;DHT22;6349;50.904;6.136;2024-03-23T00:54:37;8.80;99.90
12568;DHT22;6349;50.904;6.136;2024-03-23T00:56:37;8.80;99.90
12568;DHT22;6349;50.904;6.136;2024-03-23T00:58:38;8.80;99.90
12568;DHT22;6349;50.904;6.136;2024-03-23T01:00:39;8.80;99.90
12568;DHT22;6349;50.904;6.136;2024-03-23T01:02:40;8.80;99.90
12568;DHT22;6349;50.904;6.136;2024-03-23T01:04:43;8.70;99.90
12568;DHT22;6349;50.904;6.136;2024-03-23T01:06:43;8.60;99.90
12568;DHT22;6349;50.904;6.136;2024-03-23T01:08:44;8.50;99.90
12568;DHT22;6349;50.904;6.136;2024-03-23T01:10:56;8.40;99.90
12568;DHT22;6349;50.904;6.136;2024-03-23T01:12:57;8.40;99.90
12568;DHT22;6349;50.904;6.136;2024-03-23T01:14:58;8.30;99.90
12568;DHT22;6349;50.904;6.136;2024-03-23T01:16:58;8.30;99.90
12568;DHT22;6349;50.904;6.136;2024-03-23T01:18:59;8.20;99.90
12568;DHT22;6349;50.904;6.136;2024-03-23T01:21:00;8.10;99.90
12568;DHT22;6349;50.904;6.136;2024-03-23T01:23:00;8.10;99.90
12568;DHT22;6349;50.904;6.136;2024-03-23T01:25:01;8.10;99.90
12568;DHT22;6349;50.904;6.136;2024-03-23T01:27:01;8.00;99.90
12568;DHT22;6349;50.904;6.136;2024-03-23T01:29:02;8.10;99.90
12568;DHT22;6349;50.904;6.136;2024-03-23T01:31:03;8.00;99.90
12568;DHT22;6349;50.904;6.136;2024-03-23T01:33:03;8.00;99.90
12568;DHT22;6349;50.904;6.136;2024-03-23T01:35:04;8.00;99.90
12568;DHT22;6349;50.904;6.136;2024-03-23T01:37:05;8.00;99.90
12568;DHT22;6349;50.904;6.136;2024-03-23T01:39:05;7.90;99.90
12568;DHT22;6349;50.904;6.136;2024-03-23T01:41:06;8.00;99.90
12568;DHT22;6349;50.904;6.136;2024-03-23T01:43:09;8.00;99.90
12568;DHT22;6349;50.904;6.136;2024-03-23T01:45:10;8.00;99.90
12568;DHT22;6349;50.904;6.136;2024-03-23T01:47:11;8.00;99.90
12568;DHT22;6349;50.904;6.136;2024-03-23T01:49:11;8.00;99.90
12568;DHT22;6349;50.904;6.136;2024-03-23T01:51:13;8.00;99.90
12568;DHT22;6349;50.904;6.136;2024-03-23T01:53:14;8.00;99.90
12568;DHT22;6349;50.904;6.136;2024-03-23T01:55:18;8.00;99.90
12568;DHT22;6349;50.904;6.136;2024-03-23T01:57:19;8.00;99.90
12568;DHT22;6349;50.904;6.136;2024-03-23T01:59:21;8.00;99.90
12568;DHT22;6349;50.904;6.136;2024-03-23T02:01:21;8.10;99.90
12568;DHT22;6349;50.904;6.136;2024-03-23T02:03:26;8.10;99.90
12568;DHT22;6349;50.904;6.136;2024-03-23T02:05:27;8.10;99.90
12568;DHT22;6349;50.904;6.136;2024-03-23T02:07:27;8.10;99.90
12568;DHT22;6349;50.904;6.136;2024-03-23T02:09:28;8.20;99.90
12568;DHT22;6349;50.904;6.136;2024-03-23T02:11:29;8.10;99.90
12568;DHT22;6349;50.904;6.136;2024-03-23T02:13:29;8.10;99.90
12568;DHT22;6349;50.904;6.136;2024-03-23T02:15:32;8.10;99.90
12568;DHT22;6349;50.904;6.136;2024-03-23T02:17:34;8.00;99.90
12568;DHT22;6349;50.904;6.136;2024-03-23T02:19:35;8.00;99.90
12568;DHT22;6349;50.904;6.136;2024-03-23T02:21:35;8.00;99.90
12568;DHT22;6349;50.904;6.136;2024-03-23T02:23:36;8.00;99.90
12568;DHT22;6349;50.904;6.136;2024-03-23T02:25:37;8.00;99.90
12568;DHT22;6349;50.904;6.136;2024-03-23T02:27:37;8.00;99.90
12568;DHT22;6349;50.904;6.136;2024-03-23T02:29:39;8.00;99.90
12568;DHT22;6349;50.904;6.136;2024-03-23T02:31:39;8.00;99.90
12568;DHT22;6349;50.904;6.136;2024-03-23T02:33:40;8.00;99.90
12568;DHT22;6349;50.904;6.136;2024-03-23T02:35:41;8.00;99.90
12568;DHT22;6349;50.904;6.136;2024-03-23T02:37:42;8.00;99.90
12568;DHT22;6349;50.904;6.136;2024-03-23T02:39:42;8.10;99.90
12568;DHT22;6349;50.904;6.136;2024-03-23T02:41:43;8.10;99.90
12568;DHT22;6349;50.904;6.136;2024-03-23T02:43:43;8.10;99.90
12568;DHT22;6349;50.904;6.136;2024-03-23T02:45:44;8.00;99.90
12568;DHT22;6349;50.904;6.136;2024-03-23T02:47:44;8.00;99.90
12568;DHT22;6349;50.904;6.136;2024-03-23T02:49:45;8.00;99.90
12568;DHT22;6349;50.904;6.136;2024-03-23T02:51:46;8.00;99.90
12568;DHT22;6349;50.904;6.136;2024-03-23T02:53:48;8.10;99.90
12568;DHT22;6349;50.904;6.136;2024-03-23T02:55:49;8.10;99.90
12568;DHT22;6349;50.904;6.136;2024-03-23T02:57:49;8.20;99.90
12568;DHT22;6349;50.904;6.136;2024-03-23T02:59:50;8.10;99.90
12568;DHT22;6349;50.904;6.136;2024-03-23T03:01:51;8.10;99.90
12568;DHT22;6349;50.904;6.136;2024-03-23T03:03:51;7.90;99.90
12568;DHT22;6349;50.904;6.136;2024-03-23T03:05:55;7.80;99.90
12568;DHT22;6349;50.904;6.136;2024-03-23T03:07:56;7.80;99.90
12568;DHT22;6349;50.904;6.136;2024-03-23T03:09:57;7.60;99.90
12568;DHT22;6349;50.904;6.136;2024-03-23T03:11:57;7.40;99.90
12568;DHT22;6349;50.904;6.136;2024-03-23T03:13:58;7.30;99.90
12568;DHT22;6349;50.904;6.136;2024-03-23T03:16:00;7.10;99.90
12568;DHT22;6349;50.904;6.136;2024-03-23T03:18:01;7.00;99.90
12568;DHT22;6349;50.904;6.136;2024-03-23T03:20:01;7.00;99.90
12568;DHT22;6349;50.904;6.136;2024-03-23T03:22:02;7.00;99.90
12568;DHT22;6349;50.904;6.136;2024-03-23T03:24:06;7.10;99.90
12568;DHT22;6349;50.904;6.136;2024-03-23T03:26:07;7.30;99.90
12568;DHT22;6349;50.904;6.136;2024-03-23T03:28:07;7.40;99.90
12568;DHT22;6349;50.904;6.136;2024-03-23T03:30:08;7.60;99.90
12568;DHT22;6349;50.904;6.136;2024-03-23T03:32:09;7.70;99.90
12568;DHT22;6349;50.904;6.136;2024-03-23T03:34:10;7.80;99.90
12568;DHT22;6349;50.904;6.136;2024-03-23T03:36:11;7.90;99.90
12568;DHT22;6349;50.904;6.136;2024-03-23T03:38:11;7.90;99.90
12568;DHT22;6349;50.904;6.136;2024-03-23T03:40:12;7.90;99.90
12568;DHT22;6349;50.904;6.136;2024-03-23T03:42:15;7.90;99.90
12568;DHT22;6349;50.904;6.136;2024-03-23T03:44:16;7.90;99.90
12568;DHT22;6349;50.904;6.136;2024-03-23T03:46:16;7.80;99.90
12568;DHT22;6349;50.904;6.136;2024-03-23T03:48:17;7.80;99.90
12568;DHT22;6349;50.904;6.136;2024-03-23T03:50:17;7.80;99.90
12568;DHT22;6349;50.904;6.136;2024-03-23T03:52:18;7.70;99.90
12568;DHT22;6349;50.904;6.136;2024-03-23T03:54:18;7.70;99.90
12568;DHT22;6349;50.904;6.136;2024-03-23T03:56:19;7.70;99.90
12568;DHT22;6349;50.904;6.136;2024-03-23T03:58:19;7.70;99.90
12568;DHT22;6349;50.904;6.136;2024-03-23T04:00:20;7.80;99.90
12568;DHT22;6349;50.904;6.136;2024-03-23T04:02:21;7.70;99.90
12568;DHT22;6349;50.904;6.136;2024-03-23T04:04:21;7.80;99.90
12568;DHT22;6349;50.904;6.136;2024-03-23T04:06:22;7.70;99.90
12568;DHT22;6349;50.904;6.136;2024-03-23T04:08:24;7.70;99.90
12568;DHT22;6349;50.904;6.136;2024-03-23T04:10:24;7.70;99.90
12568;DHT22;6349;50.904;6.136;2024-03-23T04:12:25;7.70;99.90
12568;DHT22;6349;50.904;6.136;2024-03-23T04:14:26;7.70;99.90
12568;DHT22;6349;50.904;6.136;2024-03-23T04:16:35;7.60;99.90
12568;DHT22;6349;50.904;6.136;2024-03-23T04:18:35;7.60;99.90
12568;DHT22;6349;50.904;6.136;2024-03-23T04:20:36;7.60;99.90
12568;DHT22;6349;50.904;6.136;2024-03-23T04:22:40;7.50;99.90
12568;DHT22;6349;50.904;6.136;2024-03-23T04:24:40;7.50;99.90
12568;DHT22;6349;50.904;6.136;2024-03-23T04:26:42;7.50;99.90
12568;DHT22;6349;50.904;6.136;2024-03-23T04:28:42;7.40;99.90
12568;DHT22;6349;50.904;6.136;2024-03-23T04:30:43;7.40;99.90
12568;DHT22;6349;50.904;6.136;2024-03-23T04:32:43;7.50;99.90
12568;DHT22;6349;50.904;6.136;2024-03-23T04:34:44;7.40;99.90
12568;DHT22;6349;50.904;6.136;2024-03-23T04:36:45;7.50;99.90
12568;DHT22;6349;50.904;6.136;2024-03-23T04:38:46;7.50;99.90
12568;DHT22;6349;50.904;6.136;2024-03-23T04:40:59;7.50;99.90
12568;DHT22;6349;50.904;6.136;2024-03-23T04:43:00;7.40;99.90
12568;DHT22;6349;50.904;6.136;2024-03-23T04:45:01;7.40;99.90
12568;DHT22;6349;50.904;6.136;2024-03-23T04:47:02;7.40;99.90
12568;DHT22;6349;50.904;6.136;2024-03-23T04:49:02;7.40;99.90
12568;DHT22;6349;50.904;6.136;2024-03-23T04:51:04;7.30;99.90
12568;DHT22;6349;50.904;6.136;2024-03-23T04:53:05;7.30;99.90
12568;DHT22;6349;50.904;6.136;2024-03-23T04:55:05;7.30;99.90
12568;DHT22;6349;50.904;6.136;2024-03-23T04:57:07;7.30;99.90
12568;DHT22;6349;50.904;6.136;2024-03-23T04:59:07;7.30;99.90
12568;DHT22;6349;50.904;6.136;2024-03-23T05:01:09;7.30;99.90
12568;DHT22;6349;50.904;6.136;2024-03-23T05:03:09;7.30;99.90
12568;DHT22;6349;50.904;6.136;2024-03-23T05:05:10;7.20;99.90
12568;DHT22;6349;50.904;6.136;2024-03-23T05:07:10;7.30;99.90
12568;DHT22;6349;50.904;6.136;2024-03-23T05:09:11;7.20;99.90
12568;DHT22;6349;50.904;6.136;2024-03-23T05:11:12;7.20;99.90
12568;DHT22;6349;50.904;6.136;2024-03-23T05:13:13;7.20;99.90
12568;DHT22;6349;50.904;6.136;2024-03-23T05:15:13;7.10;99.90
12568;DHT22;6349;50.904;6.136;2024-03-23T05:17:14;7.10;99.90
12568;DHT22;6349;50.904;6.136;2024-03-23T05:19:15;7.20;99.90
12568;DHT22;6349;50.904;6.136;2024-03-23T05:21:15;7.10;99.90
12568;DHT22;6349;50.904;6.136;2024-03-23T05:23:16;7.10;99.90
12568;DHT22;6349;50.904;6.136;2024-03-23T05:25:16;7.10;99.90
12568;DHT22;6349;50.904;6.136;2024-03-23T05:27:17;7.00;99.90
12568;DHT22;6349;50.904;6.136;2024-03-23T05:29:17;7.10;99.90
12568;DHT22;6349;50.904;6.136;2024-03-23T05:31:28;7.10;99.90
12568;DHT22;6349;50.904;6.136;2024-03-23T05:33:29;7.00;99.90
12568;DHT22;6349;50.904;6.136;2024-03-23T05:35:30;7.00;99.90
12568;DHT22;6349;50.904;6.136;2024-03-23T05:37:30;6.90;99.90
12568;DHT22;6349;50.904;6.136;2024-03-23T05:39:34;7.00;99.90
12568;DHT22;6349;50.904;6.136;2024-03-23T05:41:34;6.90;99.90
12568;DHT22;6349;50.904;6.136;2024-03-23T05:43:36;7.00;99.90
12568;DHT22;6349;50.904;6.136;2024-03-23T05:45:37;7.00;99.90
12568;DHT22;6349;50.904;6.136;2024-03-23T05:47:37;6.90;99.90
12568;DHT22;6349;50.904;6.136;2024-03-23T05:49:38;6.90;99.90
12568;DHT22;6349;50.904;6.136;2024-03-23T05:51:38;6.90;99.90
12568;DHT22;6349;50.904;6.136;2024-03-23T05:53:39;6.90;99.90
12568;DHT22;6349;50.904;6.136;2024-03-23T05:55:40;6.80;99.90
12568;DHT22;6349;50.904;6.136;2024-03-23T05:57:40;6.90;99.90
12568;DHT22;6349;50.904;6.136;2024-03-23T05:59:41;6.80;99.90
12568;DHT22;6349;50.904;6.136;2024-03-23T06:01:41;6.80;99.90
12568;DHT22;6349;50.904;6.136;2024-03-23T06:03:42;6.80;99.90
12568;DHT22;6349;50.904;6.136;2024-03-23T06:05:44;6.80;99.90
12568;DHT22;6349;50.904;6.136;2024-03-23T06:07:44;6.80;99.90
12568;DHT22;6349;50.904;6.136;2024-03-23T06:09:45;6.80;99.90
12568;DHT22;6349;50.904;6.136;2024-03-23T06:11:46;6.80;99.90
12568;DHT22;6349;50.904;6.136;2024-03-23T06:13:46;6.80;99.90
12568;DHT22;6349;50.904;6.136;2024-03-23T06:15:47;6.70;99.90
12568;DHT22;6349;50.904;6.136;2024-03-23T06:17:49;6.80;99.90
12568;DHT22;6349;50.904;6.136;2024-03-23T06:19:50;6.80;99.90
12568;DHT22;6349;50.904;6.136;2024-03-23T06:21:50;6.80;99.90
12568;DHT22;6349;50.904;6.136;2024-03-23T06:23:52;6.80;99.90
12568;DHT22;6349;50.904;6.136;2024-03-23T06:25:52;6.80;99.90
12568;DHT22;6349;50.904;6.136;2024-03-23T06:27:53;6.80;99.90
12568;DHT22;6349;50.904;6.136;2024-03-23T06:29:54;6.80;99.90
12568;DHT22;6349;50.904;6.136;2024-03-23T06:31:54;6.80;99.90
12568;DHT22;6349;50.904;6.136;2024-03-23T06:33:55;6.80;99.90
12568;DHT22;6349;50.904;6.136;2024-03-23T06:35:56;6.80;99.90
12568;DHT22;6349;50.904;6.136;2024-03-23T06:37:58;6.80;99.90
12568;DHT22;6349;50.904;6.136;2024-03-23T06:39:58;6.90;99.90
12568;DHT22;6349;50.904;6.136;2024-03-23T06:41:59;6.90;99.90
12568;DHT22;6349;50.904;6.136;2024-03-23T06:43:59;6.90;99.90
12568;DHT22;6349;50.904;6.136;2024-03-23T06:46:01;6.90;99.90
12568;DHT22;6349;50.904;6.136;2024-03-23T06:48:02;7.00;99.90
12568;DHT22;6349;50.904;6.136;2024-03-23T06:50:04;7.00;99.90
12568;DHT22;6349;50.904;6.136;2024-03-23T06:52:05;7.10;99.90
12568;DHT22;6349;50.904;6.136;2024-03-23T06:54:05;7.20;99.90
12568;DHT22;6349;50.904;6.136;2024-03-23T06:56:06;7.20;99.90
12568;DHT22;6349;50.904;6.136;2024-03-23T06:58:07;7.10;99.90
12568;DHT22;6349;50.904;6.136;2024-03-23T07:00:09;6.90;99.90
12568;DHT22;6349;50.904;6.136;2024-03-23T07:02:10;6.50;99.90
12568;DHT22;6349;50.904;6.136;2024-03-23T07:04:11;6.20;99.90
12568;DHT22;6349;50.904;6.136;2024-03-23T07:06:11;6.00;99.90
12568;DHT22;6349;50.904;6.136;2024-03-23T07:08:12;6.00;99.90
12568;DHT22;6349;50.904;6.136;2024-03-23T07:10:13;6.10;99.90
12568;DHT22;6349;50.904;6.136;2024-03-23T07:12:13;6.10;99.90
12568;DHT22;6349;50.904;6.136;2024-03-23T07:14:14;6.20;99.90
12568;DHT22;6349;50.904;6.136;2024-03-23T07:16:15;6.20;99.90
12568;DHT22;6349;50.904;6.136;2024-03-23T07:18:16;6.30;99.90
12568;DHT22;6349;50.904;6.136;2024-03-23T07:20:16;6.30;99.90
12568;DHT22;6349;50.904;6.136;2024-03-23T07:22:17;6.30;99.90
12568;DHT22;6349;50.904;6.136;2024-03-23T07:24:18;6.30;99.90
12568;DHT22;6349;50.904;6.136;2024-03-23T07:26:18;6.30;99.90
12568;DHT22;6349;50.904;6.136;2024-03-23T07:28:19;6.30;99.90
12568;DHT22;6349;50.904;6.136;2024-03-23T07:30:19;6.40;99.90
12568;DHT22;6349;50.904;6.136;2024-03-23T07:32:20;6.40;99.90
12568;DHT22;6349;50.904;6.136;2024-03-23T07:34:21;6.50;99.90
12568;DHT22;6349;50.904;6.136;2024-03-23T07:36:21;6.50;99.90
12568;DHT22;6349;50.904;6.136;2024-03-23T07:38:23;6.60;99.90
12568;DHT22;6349;50.904;6.136;2024-03-23T07:40:23;6.60;99.90
12568;DHT22;6349;50.904;6.136;2024-03-23T07:42:24;6.70;99.90
12568;DHT22;6349;50.904;6.136;2024-03-23T07:44:26;6.80;99.90
12568;DHT22;6349;50.904;6.136;2024-03-23T07:46:27;6.90;99.90
12568;DHT22;6349;50.904;6.136;2024-03-23T07:48:28;6.90;99.90
12568;DHT22;6349;50.904;6.136;2024-03-23T07:50:28;7.00;99.90
12568;DHT22;6349;50.904;6.136;2024-03-23T07:52:29;7.10;99.90
12568;DHT22;6349;50.904;6.136;2024-03-23T07:54:29;7.20;99.90
12568;DHT22;6349;50.904;6.136;2024-03-23T07:56:30;7.30;99.90
12568;DHT22;6349;50.904;6.136;2024-03-23T07:58:31;7.30;99.90
12568;DHT22;6349;50.904;6.136;2024-03-23T08:00:33;7.30;99.90
12568;DHT22;6349;50.904;6.136;2024-03-23T08:02:33;7.40;99.90
12568;DHT22;6349;50.904;6.136;2024-03-23T08:04:34;7.40;99.90
12568;DHT22;6349;50.904;6.136;2024-03-23T08:06:35;7.40;99.90
12568;DHT22;6349;50.904;6.136;2024-03-23T08:08:36;7.50;99.90
12568;DHT22;6349;50.904;6.136;2024-03-23T08:10:37;7.60;99.90
12568;DHT22;6349;50.904;6.136;2024-03-23T08:12:38;7.60;99.90
12568;DHT22;6349;50.904;6.136;2024-03-23T08:14:38;7.60;99.90
12568;DHT22;6349;50.904;6.136;2024-03-23T08:16:39;7.60;99.90
12568;DHT22;6349;50.904;6.136;2024-03-23T08:18:40;7.60;99.90
12568;DHT22;6349;50.904;6.136;2024-03-23T08:20:41;7.70;99.90
12568;DHT22;6349;50.904;6.136;2024-03-23T08:22:41;7.70;99.90
12568;DHT22;6349;50.904;6.136;2024-03-23T08:24:42;7.70;99.90
12568;DHT22;6349;50.904;6.136;2024-03-23T08:26:43;7.70;99.90
12568;DHT22;6349;50.904;6.136;2024-03-23T08:28:43;7.70;99.90
12568;DHT22;6349;50.904;6.136;2024-03-23T08:30:44;7.70;99.90
12568;DHT22;6349;50.904;6.136;2024-03-23T08:32:44;7.70;99.90
12568;DHT22;6349;50.904;6.136;2024-03-23T08:34:46;7.80;99.90
12568;DHT22;6349;50.904;6.136;2024-03-23T08:36:47;7.80;99.90
12568;DHT22;6349;50.904;6.136;2024-03-23T08:38:47;7.80;99.90
12568;DHT22;6349;50.904;6.136;2024-03-23T08:41:17;7.80;99.90
12568;DHT22;6349;50.904;6.136;2024-03-23T08:43:17;7.90;99.90
12568;DHT22;6349;50.904;6.136;2024-03-23T08:45:18;7.90;99.90
12568;DHT22;6349;50.904;6.136;2024-03-23T08:47:18;8.00;99.90
12568;DHT22;6349;50.904;6.136;2024-03-23T08:49:19;8.00;99.90
12568;DHT22;6349;50.904;6.136;2024-03-23T08:51:20;8.00;99.90
12568;DHT22;6349;50.904;6.136;2024-03-23T08:53:21;8.00;99.90
12568;DHT22;6349;50.904;6.136;2024-03-23T08:55:22;8.00;99.90
12568;DHT22;6349;50.904;6.136;2024-03-23T08:57:25;8.10;99.90
12568;DHT22;6349;50.904;6.136;2024-03-23T08:59:26;8.10;99.90
12568;DHT22;6349;50.904;6.136;2024-03-23T09:01:26;8.20;99.90
12568;DHT22;6349;50.904;6.136;2024-03-23T09:03:27;8.10;99.90
12568;DHT22;6349;50.904;6.136;2024-03-23T09:05:27;8.10;99.90
12568;DHT22;6349;50.904;6.136;2024-03-23T09:07:29;8.20;99.90
12568;DHT22;6349;50.904;6.136;2024-03-23T09:09:29;8.20;99.90
12568;DHT22;6349;50.904;6.136;2024-03-23T09:11:30;8.20;99.90
12568;DHT22;6349;50.904;6.136;2024-03-23T09:13:30;8.30;99.90
12568;DHT22;6349;50.904;6.136;2024-03-23T09:15:32;8.50;99.90
12568;DHT22;6349;50.904;6.136;2024-03-23T09:17:33;8.50;99.90
12568;DHT22;6349;50.904;6.136;2024-03-23T09:19:33;8.60;99.90
12568;DHT22;6349;50.904;6.136;2024-03-23T09:21:34;8.80;99.90
12568;DHT22;6349;50.904;6.136;2024-03-23T09:23:34;8.70;99.90
12568;DHT22;6349;50.904;6.136;2024-03-23T09:25:39;8.70;99.90
12568;DHT22;6349;50.904;6.136;2024-03-23T09:27:39;8.60;99.90
12568;DHT22;6349;50.904;6.136;2024-03-23T09:29:40;8.60;99.90
12568;DHT22;6349;50.904;6.136;2024-03-23T09:31:40;8.60;99.90
12568;DHT22;6349;50.904;6.136;2024-03-23T09:33:41;8.50;99.90
12568;DHT22;6349;50.904;6.136;2024-03-23T09:35:43;8.40;99.90
12568;DHT22;6349;50.904;6.136;2024-03-23T09:37:47;8.30;99.90
12568;DHT22;6349;50.904;6.136;2024-03-23T09:39:48;8.20;99.90
12568;DHT22;6349;50.904;6.136;2024-03-23T09:41:49;8.20;99.90
12568;DHT22;6349;50.904;6.136;2024-03-23T09:43:52;8.20;99.90
12568;DHT22;6349;50.904;6.136;2024-03-23T09:45:53;8.20;99.90
12568;DHT22;6349;50.904;6.136;2024-03-23T09:47:55;8.20;99.90
12568;DHT22;6349;50.904;6.136;2024-03-23T09:49:56;8.40;99.90
12568;DHT22;6349;50.904;6.136;2024-03-23T09:51:56;8.50;99.90
12568;DHT22;6349;50.904;6.136;2024-03-23T09:53:57;8.70;99.90
12568;DHT22;6349;50.904;6.136;2024-03-23T09:55:57;8.80;99.90
12568;DHT22;6349;50.904;6.136;2024-03-23T09:58:00;9.00;99.90
12568;DHT22;6349;50.904;6.136;2024-03-23T10:00:01;9.10;99.90
12568;DHT22;6349;50.904;6.136;2024-03-23T10:02:01;9.20;99.90
12568;DHT22;6349;50.904;6.136;2024-03-23T10:04:03;9.30;99.90
12568;DHT22;6349;50.904;6.136;2024-03-23T10:06:03;9.30;99.90
12568;DHT22;6349;50.904;6.136;2024-03-23T10:10:16;9.20;99.90
12568;DHT22;6349;50.904;6.136;2024-03-23T10:12:18;9.10;99.90
12568;DHT22;6349;50.904;6.136;2024-03-23T10:14:31;9.00;99.90
12568;DHT22;6349;50.904;6.136;2024-03-23T10:16:34;9.00;99.90
12568;DHT22;6349;50.904;6.136;2024-03-23T10:18:41;9.00;99.90
12568;DHT22;6349;50.904;6.136;2024-03-23T10:20:41;9.00;99.90
12568;DHT22;6349;50.904;6.136;2024-03-23T10:22:42;8.90;99.90
12568;DHT22;6349;50.904;6.136;2024-03-23T10:24:44;8.80;99.90
12568;DHT22;6349;50.904;6.136;2024-03-23T10:26:56;8.80;99.90
12568;DHT22;6349;50.904;6.136;2024-03-23T10:28:58;8.70;99.90
12568;DHT22;6349;50.904;6.136;2024-03-23T10:31:11;8.70;99.90
12568;DHT22;6349;50.904;6.136;2024-03-23T10:33:12;8.70;99.90
12568;DHT22;6349;50.904;6.136;2024-03-23T10:37:15;8.70;99.90
12568;DHT22;6349;50.904;6.136;2024-03-23T10:39:16;8.70;99.90
12568;DHT22;6349;50.904;6.136;2024-03-23T10:41:18;8.70;99.90
12568;DHT22;6349;50.904;6.136;2024-03-23T10:43:19;8.60;99.90
12568;DHT22;6349;50.904;6.136;2024-03-23T10:45:20;8.60;99.90
12568;DHT22;6349;50.904;6.136;2024-03-23T10:47:21;8.60;99.90
12568;DHT22;6349;50.904;6.136;2024-03-23T10:49:21;8.60;99.90
12568;DHT22;6349;50.904;6.136;2024-03-23T10:51:22;8.60;99.90
12568;DHT22;6349;50.904;6.136;2024-03-23T10:53:26;8.60;99.90
12568;DHT22;6349;50.904;6.136;2024-03-23T10:55:27;8.60;99.90
12568;DHT22;6349;50.904;6.136;2024-03-23T10:57:44;8.50;99.90
12568;DHT22;6349;50.904;6.136;2024-03-23T10:59:45;8.50;99.90
12568;DHT22;6349;50.904;6.136;2024-03-23T11:01:56;8.50;99.90
12568;DHT22;6349;50.904;6.136;2024-03-23T11:03:57;8.60;99.90
12568;DHT22;6349;50.904;6.136;2024-03-23T11:05:59;8.60;99.90
12568;DHT22;6349;50.904;6.136;2024-03-23T11:08:00;8.60;99.90
12568;DHT22;6349;50.904;6.136;2024-03-23T11:10:00;8.60;99.90
12568;DHT22;6349;50.904;6.136;2024-03-23T11:14:22;8.50;99.90
12568;DHT22;6349;50.904;6.136;2024-03-23T11:16:29;8.50;99.90
12568;DHT22;6349;50.904;6.136;2024-03-23T11:18:35;8.60;99.90
12568;DHT22;6349;50.904;6.136;2024-03-23T11:20:36;8.60;99.90
12568;DHT22;6349;50.904;6.136;2024-03-23T11:22:46;8.60;99.90
12568;DHT22;6349;50.904;6.136;2024-03-23T11:24:51;8.60;99.90
12568;DHT22;6349;50.904;6.136;2024-03-23T11:26:52;8.50;99.90
12568;DHT22;6349;50.904;6.136;2024-03-23T11:29:12;8.40;99.90
12568;DHT22;6349;50.904;6.136;2024-03-23T11:31:14;8.50;99.90
12568;DHT22;6349;50.904;6.136;2024-03-23T11:33:15;8.70;99.90
12568;DHT22;6349;50.904;6.136;2024-03-23T11:35:26;8.80;99.90
12568;DHT22;6349;50.904;6.136;2024-03-23T11:37:26;8.90;99.90
12568;DHT22;6349;50.904;6.136;2024-03-23T11:39:27;9.00;99.90
12568;DHT22;6349;50.904;6.136;2024-03-23T11:41:27;9.20;99.90
12568;DHT22;6349;50.904;6.136;2024-03-23T11:43:28;9.30;99.90
12568;DHT22;6349;50.904;6.136;2024-03-23T11:45:29;9.40;99.90
12568;DHT22;6349;50.904;6.136;2024-03-23T11:47:33;9.20;99.90
12568;DHT22;6349;50.904;6.136;2024-03-23T11:49:34;8.60;99.90
12568;DHT22;6349;50.904;6.136;2024-03-23T11:51:41;8.10;99.90
12568;DHT22;6349;50.904;6.136;2024-03-23T11:53:41;7.70;99.90
12568;DHT22;6349;50.904;6.136;2024-03-23T11:55:50;7.40;99.90
12568;DHT22;6349;50.904;6.136;2024-03-23T11:57:51;7.30;99.90
12568;DHT22;6349;50.904;6.136;2024-03-23T11:59:51;7.20;99.90
12568;DHT22;6349;50.904;6.136;2024-03-23T12:01:52;7.30;99.90
12568;DHT22;6349;50.904;6.136;2024-03-23T12:03:53;7.40;99.90
12568;DHT22;6349;50.904;6.136;2024-03-23T12:05:55;7.40;99.90
12568;DHT22;6349;50.904;6.136;2024-03-23T12:08:15;7.40;99.90
12568;DHT22;6349;50.904;6.136;2024-03-23T12:10:19;7.50;99.90
12568;DHT22;6349;50.904;6.136;2024-03-23T12:12:19;7.60;99.90
12568;DHT22;6349;50.904;6.136;2024-03-23T12:14:21;7.80;99.90
12568;DHT22;6349;50.904;6.136;2024-03-23T12:16:24;7.80;99.90
12568;DHT22;6349;50.904;6.136;2024-03-23T12:18:27;7.90;99.90
12568;DHT22;6349;50.904;6.136;2024-03-23T12:20:28;7.90;99.90
12568;DHT22;6349;50.904;6.136;2024-03-23T12:22:29;8.20;99.90
12568;DHT22;6349;50.904;6.136;2024-03-23T12:24:33;8.40;99.90
12568;DHT22;6349;50.904;6.136;2024-03-23T12:26:36;8.60;99.90
12568;DHT22;6349;50.904;6.136;2024-03-23T12:28:39;8.70;99.90
12568;DHT22;6349;50.904;6.136;2024-03-23T12:30:40;8.70;99.90
12568;DHT22;6349;50.904;6.136;2024-03-23T12:32:41;8.60;99.90
12568;DHT22;6349;50.904;6.136;2024-03-23T12:34:41;8.60;99.90
12568;DHT22;6349;50.904;6.136;2024-03-23T12:36:42;8.70;99.90
12568;DHT22;6349;50.904;6.136;2024-03-23T12:38:42;9.00;99.90
12568;DHT22;6349;50.904;6.136;2024-03-23T12:40:51;9.30;99.90
12568;DHT22;6349;50.904;6.136;2024-03-23T12:42:52;9.40;99.90
12568;DHT22;6349;50.904;6.136;2024-03-23T12:44:52;9.40;99.90
12568;DHT22;6349;50.904;6.136;2024-03-23T12:46:53;9.40;99.90
12568;DHT22;6349;50.904;6.136;2024-03-23T12:48:54;9.40;99.90
12568;DHT22;6349;50.904;6.136;2024-03-23T12:50:55;9.60;99.90
12568;DHT22;6349;50.904;6.136;2024-03-23T12:52:55;9.80;99.90
12568;DHT22;6349;50.904;6.136;2024-03-23T12:54:56;10.00;99.90
12568;DHT22;6349;50.904;6.136;2024-03-23T12:56:57;10.20;99.90
12568;DHT22;6349;50.904;6.136;2024-03-23T12:58:57;10.10;99.90
12568;DHT22;6349;50.904;6.136;2024-03-23T13:00:58;10.00;99.90
12568;DHT22;6349;50.904;6.136;2024-03-23T13:02:59;9.50;99.90
12568;DHT22;6349;50.904;6.136;2024-03-23T13:04:59;8.90;99.90
12568;DHT22;6349;50.904;6.136;2024-03-23T13:07:00;8.50;99.90
12568;DHT22;6349;50.904;6.136;2024-03-23T13:09:04;8.40;99.90
12568;DHT22;6349;50.904;6.136;2024-03-23T13:11:05;8.30;99.90
12568;DHT22;6349;50.904;6.136;2024-03-23T13:13:05;8.10;99.90
12568;DHT22;6349;50.904;6.136;2024-03-23T13:15:08;8.00;99.90
12568;DHT22;6349;50.904;6.136;2024-03-23T13:17:09;8.00;99.90
12568;DHT22;6349;50.904;6.136;2024-03-23T13:19:09;8.00;99.90
12568;DHT22;6349;50.904;6.136;2024-03-23T13:21:10;8.20;99.90
12568;DHT22;6349;50.904;6.136;2024-03-23T13:23:10;8.40;99.90
12568;DHT22;6349;50.904;6.136;2024-03-23T13:25:11;8.70;99.90
12568;DHT22;6349;50.904;6.136;2024-03-23T13:27:11;8.90;99.90
12568;DHT22;6349;50.904;6.136;2024-03-23T13:29:12;9.10;99.90
12568;DHT22;6349;50.904;6.136;2024-03-23T13:31:12;9.30;99.90
12568;DHT22;6349;50.904;6.136;2024-03-23T13:33:13;9.50;99.90
12568;DHT22;6349;50.904;6.136;2024-03-23T13:35:14;9.60;99.90
12568;DHT22;6349;50.904;6.136;2024-03-23T13:37:14;9.80;99.90
12568;DHT22;6349;50.904;6.136;2024-03-23T13:39:15;10.00;99.90
12568;DHT22;6349;50.904;6.136;2024-03-23T13:41:16;10.10;99.90
12568;DHT22;6349;50.904;6.136;2024-03-23T13:43:16;10.30;99.90
12568;DHT22;6349;50.904;6.136;2024-03-23T13:45:17;10.40;99.90
12568;DHT22;6349;50.904;6.136;2024-03-23T13:47:17;10.50;99.90
12568;DHT22;6349;50.904;6.136;2024-03-23T13:49:31;10.60;99.90
12568;DHT22;6349;50.904;6.136;2024-03-23T13:51:33;10.50;99.90
12568;DHT22;6349;50.904;6.136;2024-03-23T13:53:33;10.30;99.90
12568;DHT22;6349;50.904;6.136;2024-03-23T13:55:34;10.20;99.90
12568;DHT22;6349;50.904;6.136;2024-03-23T13:57:35;10.00;99.90
12568;DHT22;6349;50.904;6.136;2024-03-23T13:59:35;9.60;99.90
12568;DHT22;6349;50.904;6.136;2024-03-23T14:01:36;9.40;99.90
12568;DHT22;6349;50.904;6.136;2024-03-23T14:03:36;9.10;99.90
12568;DHT22;6349;50.904;6.136;2024-03-23T14:05:37;8.90;99.90
12568;DHT22;6349;50.904;6.136;2024-03-23T14:07:41;8.60;99.90
12568;DHT22;6349;50.904;6.136;2024-03-23T14:09:41;8.50;99.90
12568;DHT22;6349;50.904;6.136;2024-03-23T14:11:42;8.40;99.90